Time;durP1;ratioP1;P1;durP2;ratioP2;P2;SDS_P1;SDS_P2;PMS_P1;PMS_P2;Temp;Humidity;BMP_temperature;BMP_pressure;BME280_temperature;BME280_humidity;BME280_pressure;Samples;Min_cycle;Max_cycle;Signal;HPM_P1;HPM_P2
2021/08/24 00:01:51;;;;;;;13.48;7.05;;;;;;;13.19;100.00;102620.06;5223712;28;20683;-80
2021/08/24 00:04:21;;;;;;;18.15;8.77;;;;;;;13.21;100.00;102619.00;5223766;28;20358;-80
2021/08/24 00:06:52;;;;;;;17.00;7.78;;;;;;;13.20;100.00;102625.34;5222490;28;20029;-80
2021/08/24 00:09:22;;;;;;;18.77;9.05;;;;;;;13.16;100.00;102620.38;5223554;28;20040;-80
2021/08/24 00:11:53;;;;;;;12.30;8.20;;;;;;;13.15;100.00;102622.22;5223280;28;20104;-82
2021/08/24 00:14:23;;;;;;;14.20;9.10;;;;;;;13.10;100.00;102624.50;5223228;28;20451;-80
2021/08/24 00:16:54;;;;;;;16.27;7.90;;;;;;;13.18;100.00;102619.22;5223861;28;20394;-80
2021/08/24 00:19:25;;;;;;;15.25;8.13;;;;;;;13.15;100.00;102619.53;5223740;28;20475;-80
2021/08/24 00:21:55;;;;;;;14.23;7.75;;;;;;;13.14;100.00;102625.03;5223548;28;20084;-81
2021/08/24 00:24:26;;;;;;;20.80;7.50;;;;;;;13.17;100.00;102620.22;5210248;28;20485;-81
2021/08/24 00:26:57;;;;;;;17.73;8.05;;;;;;;13.13;100.00;102618.81;5224110;28;20116;-81
2021/08/24 00:29:27;;;;;;;14.82;7.85;;;;;;;13.12;100.00;102616.25;5223316;28;20341;-79
2021/08/24 00:31:58;;;;;;;13.90;6.95;;;;;;;13.02;100.00;102616.25;5223456;28;20024;-80
2021/08/24 00:34:28;;;;;;;17.95;7.75;;;;;;;13.11;100.00;102619.94;5223352;28;20703;-80
2021/08/24 00:36:59;;;;;;;18.75;8.80;;;;;;;13.08;100.00;102621.06;5222891;28;20486;-79
2021/08/24 00:39:29;;;;;;;11.07;7.47;;;;;;;13.01;100.00;102619.94;5209893;28;20056;-80
2021/08/24 00:41:59;;;;;;;14.00;8.32;;;;;;;13.01;100.00;102619.09;5223245;28;20078;-79
2021/08/24 00:44:30;;;;;;;17.23;8.75;;;;;;;12.99;100.00;102626.44;5222995;28;20027;-81
2021/08/24 00:47:01;;;;;;;11.73;7.50;;;;;;;13.00;100.00;102622.75;5222847;28;20032;-79
2021/08/24 00:49:31;;;;;;;15.88;7.95;;;;;;;12.94;100.00;102624.16;5222790;28;20414;-80
2021/08/24 00:52:07;;;;;;;13.35;7.53;;;;;;;12.96;100.00;102623.03;5222869;28;20037;-79
2021/08/24 00:54:39;;;;;;;14.93;8.18;;;;;;;12.88;100.00;102620.16;5222836;28;20082;-82
2021/08/24 00:57:13;;;;;;;17.83;8.98;;;;;;;12.88;100.00;102625.56;5222792;28;20020;-79
2021/08/24 00:59:44;;;;;;;17.05;8.25;;;;;;;12.89;100.00;102624.56;5222639;28;20028;-79
2021/08/24 01:02:15;;;;;;;13.45;8.02;;;;;;;12.84;100.00;102621.44;5223246;28;20104;-80
2021/08/24 01:04:47;;;;;;;17.77;8.27;;;;;;;12.89;100.00;102623.72;5222953;28;20017;-81
2021/08/24 01:07:23;;;;;;;13.63;8.32;;;;;;;12.87;100.00;102612.25;5214009;28;20426;-81
2021/08/24 01:10:13;;;;;;;;;;;;;;;12.92;100.00;102620.75;5219514;28;20382;-79
2021/08/24 01:12:52;;;;;;;19.85;8.32;;;;;;;12.97;100.00;102610.41;5204300;28;19979;-79
2021/08/24 01:15:33;;;;;;;14.65;8.00;;;;;;;12.92;100.00;102618.06;5210799;28;20028;-79
2021/08/24 01:18:24;;;;;;;;;;;;;;;12.89;100.00;102616.47;5223040;28;20486;-80
2021/08/24 01:20:54;;;;;;;13.25;7.80;;;;;;;12.85;100.00;102622.28;5221938;28;19967;-79
2021/08/24 01:23:38;;;;;;;15.98;7.95;;;;;;;12.87;100.00;102623.00;5222524;28;20036;-81
2021/08/24 01:26:21;;;;;;;16.23;8.18;;;;;;;12.93;100.00;102615.22;5218431;28;20025;-79
2021/08/24 01:29:01;;;;;;;16.42;7.30;;;;;;;12.95;100.00;102620.47;5214927;28;20108;-79
2021/08/24 01:31:58;;;;;;;14.07;7.45;;;;;;;12.95;100.00;102612.38;5222242;28;20175;-79
2021/08/24 01:34:46;;;;;;;12.02;7.50;;;;;;;12.96;100.00;102617.66;5222135;28;20025;-81
2021/08/24 01:37:34;;;;;;;12.40;7.68;;;;;;;12.95;100.00;102620.47;5221976;28;20020;-79
2021/08/24 01:40:11;;;;;;;11.75;7.47;;;;;;;12.89;100.00;102621.03;5222152;28;20454;-80
2021/08/24 01:42:42;;;;;;;14.10;8.30;;;;;;;12.98;100.00;102617.50;5220475;28;20479;-79
2021/08/24 01:45:30;;;;;;;12.95;7.78;;;;;;;12.90;100.00;102614.63;5221895;28;20497;-80
2021/08/24 01:48:14;;;;;;;13.38;7.80;;;;;;;12.89;100.00;102621.03;5221752;28;20032;-81
2021/08/24 01:50:59;;;;;;;19.48;8.32;;;;;;;12.88;100.00;102620.16;5215399;28;20032;-79
2021/08/24 01:53:35;;;;;;;;;;;;;;;12.90;100.00;102623.59;5217909;28;20040;-80
2021/08/24 01:56:11;;;;;;;12.95;7.95;;;;;;;12.82;100.00;102623.44;5221917;28;20267;-80
2021/08/24 01:58:48;;;;;;;13.27;8.07;;;;;;;12.77;100.00;102624.84;5222142;28;20029;-79
2021/08/24 02:01:23;;;;;;;18.25;8.55;;;;;;;12.79;100.00;102628.22;5221735;28;20028;-79
2021/08/24 02:03:59;;;;;;;14.02;9.00;;;;;;;12.68;100.00;102630.03;5222538;28;20546;-80
2021/08/24 02:06:35;;;;;;;16.38;8.60;;;;;;;12.67;100.00;102622.97;5222042;28;20466;-80
2021/08/24 02:09:11;;;;;;;16.80;9.07;;;;;;;12.65;100.00;102632.13;5222073;28;20040;-80
2021/08/24 02:11:43;;;;;;;17.15;9.25;;;;;;;12.68;100.00;102630.03;5221875;28;20025;-80
2021/08/24 02:14:15;;;;;;;14.55;8.50;;;;;;;12.61;100.00;102633.44;5221840;28;20431;-80
2021/08/24 02:16:48;;;;;;;12.35;8.77;;;;;;;12.56;100.00;102633.84;5221912;28;20028;-81
2021/08/24 02:19:34;;;;;;;16.00;8.82;;;;;;;12.52;100.00;102632.41;5221544;28;20051;-80
2021/08/24 02:22:16;;;;;;;18.67;9.55;;;;;;;12.45;100.00;102631.25;5211543;28;20037;-80
2021/08/24 02:24:54;;;;;;;18.27;9.93;;;;;;;12.54;100.00;102632.25;5220301;28;20083;-80
2021/08/24 02:27:29;;;;;;;14.70;8.45;;;;;;;12.46;100.00;102641.03;5221240;28;20032;-81
2021/08/24 02:29:59;;;;;;;14.88;8.70;;;;;;;12.51;100.00;102632.53;5223154;28;20455;-80
2021/08/24 02:32:39;;;;;;;14.35;9.00;;;;;;;12.55;100.00;102640.22;5225681;28;20052;-80
2021/08/24 02:35:17;;;;;;;19.33;9.50;;;;;;;12.53;100.00;102644.88;5225799;28;20524;-80
2021/08/24 02:37:54;;;;;;;15.27;9.05;;;;;;;12.61;100.00;102645.06;5218943;28;20025;-80
2021/08/24 02:40:41;;;;;;;17.55;9.88;;;;;;;12.56;100.00;102643.75;5217913;28;20104;-80
2021/08/24 02:43:18;;;;;;;13.82;8.77;;;;;;;12.51;100.00;102640.63;5226030;28;20110;-80
2021/08/24 02:46:12;;;;;;;13.70;8.98;;;;;;;12.46;100.00;102643.72;5219865;28;20021;-80
2021/08/24 02:48:47;;;;;;;25.50;8.80;;;;;;;12.47;100.00;102642.72;5218179;28;20033;-80
2021/08/24 02:51:19;;;;;;;11.93;8.02;;;;;;;12.51;100.00;102648.69;5215879;28;20017;-79
2021/08/24 02:54:03;;;;;;;15.88;8.77;;;;;;;12.46;100.00;102646.41;5221039;28;20113;-80
2021/08/24 02:56:35;;;;;;;17.70;8.85;;;;;;;12.42;100.00;102655.72;5217308;28;20033;-80
2021/08/24 02:59:05;;;;;;;15.55;8.57;;;;;;;12.44;100.00;102648.34;5211053;28;20021;-80
2021/08/24 03:01:36;;;;;;;16.85;9.23;;;;;;;12.38;100.00;102652.44;5225486;28;20036;-80
2021/08/24 03:04:08;;;;;;;14.05;9.00;;;;;;;12.34;100.00;102655.53;5225056;28;20017;-82
2021/08/24 03:06:43;;;;;;;16.35;8.73;;;;;;;12.32;100.00;102647.59;5207532;28;20078;-81
2021/08/24 03:09:16;;;;;;;16.50;8.95;;;;;;;12.29;100.00;102655.09;5224876;28;20029;-80
2021/08/24 03:11:55;;;;;;;19.00;8.60;;;;;;;12.29;100.00;102655.09;5225322;28;20032;-82
2021/08/24 03:14:33;;;;;;;13.27;9.20;;;;;;;12.21;100.00;102657.59;5221598;28;20028;-81
2021/08/24 03:17:12;;;;;;;15.77;8.65;;;;;;;12.18;100.00;102656.88;5221894;28;20033;-80
2021/08/24 03:19:44;;;;;;;14.80;8.77;;;;;;;12.13;100.00;102651.03;5222374;28;20059;-80
2021/08/24 03:22:15;;;;;;;17.23;9.00;;;;;;;12.10;100.00;102650.47;5224595;28;20028;-79
2021/08/24 03:24:45;;;;;;;13.57;8.82;;;;;;;12.07;100.00;102658.78;5211077;28;20021;-80
2021/08/24 03:27:16;;;;;;;14.77;8.40;;;;;;;12.09;100.00;102654.13;5186010;28;20075;-80
2021/08/24 03:29:59;;;;;;;14.88;9.50;;;;;;;11.99;100.00;102654.06;5223711;28;20428;-81
2021/08/24 03:32:30;;;;;;;18.70;9.23;;;;;;;11.98;100.00;102660.44;5224113;28;20041;-80
2021/08/24 03:35:00;;;;;;;18.75;9.65;;;;;;;11.95;100.00;102655.31;5206222;28;20025;-80
2021/08/24 03:37:31;;;;;;;19.70;10.63;;;;;;;12.00;100.00;102661.16;5224505;28;20473;-80
2021/08/24 03:40:04;;;;;;;17.08;9.75;;;;;;;12.00;100.00;102660.28;5213377;28;20025;-80
2021/08/24 03:42:35;;;;;;;17.75;9.98;;;;;;;11.92;100.00;102660.97;5221119;28;20029;-79
2021/08/24 03:45:07;;;;;;;20.00;10.30;;;;;;;11.91;100.00;102661.94;5224303;28;20028;-80
2021/08/24 03:47:38;;;;;;;18.55;9.65;;;;;;;11.88;100.00;102663.03;5210799;28;20398;-80
2021/08/24 03:50:09;;;;;;;21.42;10.95;;;;;;;11.88;100.00;102667.56;5223781;28;20021;-80
2021/08/24 03:52:39;;;;;;;17.67;10.18;;;;;;;11.83;100.00;102676.03;5223628;28;20025;-81
2021/08/24 03:55:10;;;;;;;20.35;10.73;;;;;;;11.83;100.00;102672.50;5210032;28;20025;-79
2021/08/24 03:57:41;;;;;;;13.70;8.73;;;;;;;11.77;100.00;102670.28;5223996;28;20451;-80
2021/08/24 04:00:12;;;;;;;20.98;10.13;;;;;;;11.76;100.00;102665.91;5223754;28;20021;-80
2021/08/24 04:02:42;;;;;;;17.80;10.25;;;;;;;11.75;100.00;102672.28;5223859;28;20025;-79
2021/08/24 04:05:13;;;;;;;18.05;11.25;;;;;;;11.73;100.00;102676.91;5223305;28;20513;-80
2021/08/24 04:07:46;;;;;;;21.60;12.52;;;;;;;11.74;100.00;102678.59;5223559;28;20062;-81
2021/08/24 04:10:16;;;;;;;19.60;9.82;;;;;;;11.78;100.00;102672.00;5223531;28;20470;-80
2021/08/24 04:12:47;;;;;;;18.55;10.32;;;;;;;11.66;100.00;102674.75;5222570;28;20028;-80
2021/08/24 04:15:17;;;;;;;20.73;10.85;;;;;;;11.65;100.00;102678.41;5211087;28;20071;-80
2021/08/24 04:17:48;;;;;;;34.83;11.00;;;;;;;11.70;100.00;102682.53;5221012;28;20029;-80
2021/08/24 04:20:18;;;;;;;17.90;10.70;;;;;;;11.74;100.00;102686.69;5211893;28;20025;-81
2021/08/24 04:22:51;;;;;;;18.88;11.00;;;;;;;11.68;100.00;102688.03;5223053;28;20056;-80
2021/08/24 04:25:22;;;;;;;17.73;11.23;;;;;;;11.70;100.00;102691.47;5223333;28;20087;-80
2021/08/24 04:27:52;;;;;;;20.23;10.70;;;;;;;11.74;100.00;102695.59;5223022;28;20029;-80
2021/08/24 04:30:23;;;;;;;19.55;10.85;;;;;;;11.68;100.00;102691.59;5210905;28;20036;-80
2021/08/24 04:32:53;;;;;;;20.10;11.32;;;;;;;11.61;100.00;102687.72;5221654;28;20048;-80
2021/08/24 04:35:24;;;;;;;18.05;10.65;;;;;;;11.58;100.00;102690.66;5209775;28;20017;-80
2021/08/24 04:37:54;;;;;;;19.77;11.05;;;;;;;11.57;100.00;102697.00;5223115;28;20041;-80
2021/08/24 04:40:27;;;;;;;19.30;10.80;;;;;;;11.58;100.00;102693.34;5221487;28;20025;-80
2021/08/24 04:42:58;;;;;;;21.58;11.32;;;;;;;11.62;100.00;102696.63;5222656;28;20470;-80
2021/08/24 04:45:28;;;;;;;18.25;11.20;;;;;;;11.64;100.00;102702.72;5222897;28;20025;-81
2021/08/24 04:47:59;;;;;;;23.20;11.05;;;;;;;11.62;100.00;102692.09;5223059;28;20093;-79
2021/08/24 04:50:29;;;;;;;18.08;12.20;;;;;;;11.60;100.00;102703.97;5218724;28;20025;-79
2021/08/24 04:53:00;;;;;;;22.52;11.18;;;;;;;11.65;100.00;102708.00;5213325;28;20352;-79
2021/08/24 04:55:31;;;;;;;24.58;11.95;;;;;;;11.70;100.00;102707.59;5222739;28;20541;-79
2021/08/24 04:58:03;;;;;;;23.38;11.93;;;;;;;11.72;100.00;102704.78;5222776;28;20425;-79
2021/08/24 05:00:35;;;;;;;25.05;12.30;;;;;;;11.71;100.00;102714.69;5222406;28;20032;-79
2021/08/24 05:03:05;;;;;;;22.48;11.45;;;;;;;11.71;100.00;102706.63;5222517;28;20111;-80
2021/08/24 05:05:36;;;;;;;29.90;12.02;;;;;;;11.76;100.00;102711.63;5222284;28;20023;-80
2021/08/24 05:08:07;;;;;;;22.15;11.63;;;;;;;11.75;100.00;102712.59;5222240;28;20059;-79
2021/08/24 05:10:37;;;;;;;23.08;12.02;;;;;;;11.76;100.00;102707.09;5204293;28;20027;-79
2021/08/24 05:13:08;;;;;;;18.65;11.98;;;;;;;11.74;100.00;102724.31;5222606;28;20031;-80
2021/08/24 05:15:39;;;;;;;20.92;11.18;;;;;;;11.81;100.00;102715.63;5212071;28;20131;-80
2021/08/24 05:18:09;;;;;;;24.17;11.23;;;;;;;11.81;100.00;102720.16;5219674;28;20414;-80
2021/08/24 05:20:40;;;;;;;22.83;11.20;;;;;;;11.83;100.00;102713.69;5222037;28;20017;-80
2021/08/24 05:23:10;;;;;;;26.02;12.55;;;;;;;11.87;100.00;102722.34;5223861;28;20471;-80
2021/08/24 05:25:41;;;;;;;18.50;11.52;;;;;;;12.22;100.00;102721.19;5222256;28;20024;-80
2021/08/24 05:28:11;;;;;;;19.88;10.95;;;;;;;12.92;100.00;102720.44;5222755;28;20020;-78
2021/08/24 05:30:42;;;;;;;18.10;10.40;;;;;;;13.73;100.00;102723.88;5221494;28;20025;-78
2021/08/24 05:33:12;;;;;;;12.13;7.28;;;;;;;14.52;100.00;102720.13;5213385;28;20052;-78
2021/08/24 05:35:42;;;;;;;10.93;6.18;;;;;;;15.17;100.00;102716.44;5217474;28;20025;-80
2021/08/24 05:38:13;;;;;;;14.57;6.28;;;;;;;15.47;100.00;102717.09;5222458;28;20036;-81
2021/08/24 05:40:43;;;;;;;13.20;6.07;;;;;;;16.05;100.00;102727.47;5221311;28;20033;-81
2021/08/24 05:43:14;;;;;;;11.27;4.88;;;;;;;16.20;100.00;102739.44;5222063;28;20395;-81
2021/08/24 05:45:44;;;;;;;10.02;5.88;;;;;;;16.55;100.00;102737.66;5221844;28;20486;-79
2021/08/24 05:48:15;;;;;;;7.65;5.25;;;;;;;16.81;100.00;102741.22;5224022;28;20060;-81
2021/08/24 05:50:45;;;;;;;14.18;5.80;;;;;;;17.21;100.00;102744.28;5223534;28;20029;-80
2021/08/24 05:53:16;;;;;;;9.57;4.70;;;;;;;17.12;100.00;102738.00;5206878;28;20028;-82
2021/08/24 05:55:46;;;;;;;14.60;5.50;;;;;;;17.16;100.00;102743.91;5224602;28;20114;-80
2021/08/24 05:58:17;;;;;;;9.85;4.32;;;;;;;17.25;100.00;102738.38;5224338;28;20024;-79
2021/08/24 06:00:47;;;;;;;12.32;5.20;;;;;;;17.35;100.00;102738.22;5223377;28;20032;-80
2021/08/24 06:03:22;;;;;;;9.13;4.70;;;;;;;17.42;100.00;102743.81;5224741;28;20036;-80
2021/08/24 06:05:52;;;;;;;12.60;4.75;;;;;;;17.43;100.00;102742.84;5231573;28;20039;-81
2021/08/24 06:08:23;;;;;;;11.35;5.22;;;;;;;17.39;100.00;102746.88;5224143;28;20033;-79
2021/08/24 06:10:53;;;;;;;10.15;4.68;;;;;;;17.42;100.00;102746.53;5220940;28;20404;-80
2021/08/24 06:13:24;;;;;;;10.32;5.03;;;;;;;17.28;100.00;102748.91;5226357;28;20025;-79
2021/08/24 06:15:54;;;;;;;10.65;4.85;;;;;;;16.94;100.00;102750.78;5226058;28;20104;-79
2021/08/24 06:18:25;;;;;;;9.73;5.32;;;;;;;16.26;100.00;102743.38;5208008;28;20387;-81
2021/08/24 06:20:55;;;;;;;8.13;4.90;;;;;;;15.57;100.00;102742.22;5208131;28;20044;-81
2021/08/24 06:23:26;;;;;;;9.77;5.28;;;;;;;15.05;100.00;102744.66;5195885;28;20540;-79
2021/08/24 06:25:56;;;;;;;10.07;5.38;;;;;;;14.70;100.00;102748.91;5212732;28;20025;-80
2021/08/24 06:28:27;;;;;;;12.43;5.60;;;;;;;14.53;100.00;102752.38;5225928;28;20067;-80
2021/08/24 06:30:57;;;;;;;15.30;6.10;;;;;;;14.38;100.00;102751.13;5225579;28;20025;-79
2021/08/24 06:33:31;;;;;;;14.50;5.97;;;;;;;14.33;100.00;102754.25;5225133;28;20112;-80
2021/08/24 06:36:03;;;;;;;16.90;6.80;;;;;;;14.35;100.00;102749.53;5225314;28;20029;-79
2021/08/24 06:38:34;;;;;;;10.88;6.03;;;;;;;14.35;100.00;102763.03;5225429;28;20025;-80
2021/08/24 06:41:05;;;;;;;12.95;6.45;;;;;;;14.40;100.00;102757.22;5223923;28;20378;-79
2021/08/24 06:43:35;;;;;;;13.07;6.43;;;;;;;14.39;100.00;102760.91;5225729;28;20086;-80
2021/08/24 06:46:06;;;;;;;14.02;6.35;;;;;;;14.41;100.00;102767.03;5213130;28;20462;-80
2021/08/24 06:48:37;;;;;;;11.35;6.55;;;;;;;14.50;100.00;102761.63;5226510;28;20141;-80
2021/08/24 06:51:09;;;;;;;12.90;7.00;;;;;;;14.60;100.00;102768.84;5225575;28;20033;-81
2021/08/24 06:53:41;;;;;;;8.90;5.30;;;;;;;14.71;100.00;102771.41;5222424;28;20028;-80
2021/08/24 06:56:12;;;;;;;16.77;5.88;;;;;;;14.73;100.00;102767.53;5217234;28;20470;-80
2021/08/24 06:58:44;;;;;;;13.68;6.13;;;;;;;14.75;100.00;102768.25;5228323;28;20032;-80
2021/08/24 07:01:17;;;;;;;14.52;6.75;;;;;;;14.80;100.00;102780.47;5227800;28;20025;-80
2021/08/24 07:03:48;;;;;;;10.45;6.65;;;;;;;14.91;100.00;102775.75;5219719;28;20061;-80
2021/08/24 07:06:19;;;;;;;10.10;6.60;;;;;;;15.07;100.00;102780.50;5205097;28;20048;-80
2021/08/24 07:08:53;;;;;;;17.35;5.97;;;;;;;15.19;100.00;102773.06;5224856;28;20040;-79
2021/08/24 07:11:26;;;;;;;11.25;6.47;;;;;;;15.25;100.00;102781.41;5213899;28;20029;-80
2021/08/24 07:13:59;;;;;;;11.20;6.32;;;;;;;15.29;100.00;102779.25;5225998;28;20256;-80
2021/08/24 07:16:30;;;;;;;14.45;5.90;;;;;;;15.45;100.00;102776.75;5226249;28;20434;-81
2021/08/24 07:19:01;;;;;;;15.27;6.82;;;;;;;15.59;100.00;102778.09;5208216;28;20071;-82
2021/08/24 07:21:31;;;;;;;15.23;5.95;;;;;;;15.74;100.00;102783.84;5208233;28;20025;-80
2021/08/24 07:24:02;;;;;;;9.57;5.80;;;;;;;15.80;100.00;102778.66;5226812;28;20075;-81
2021/08/24 07:26:33;;;;;;;11.27;6.18;;;;;;;15.86;100.00;102779.91;5221548;28;20022;-80
2021/08/24 07:29:03;;;;;;;8.13;5.55;;;;;;;15.96;100.00;102777.13;5219191;28;20428;-80
2021/08/24 07:31:37;;;;;;;16.88;6.00;;;;;;;16.04;100.00;102782.63;5216804;28;20051;-80
2021/08/24 07:34:09;;;;;;;12.20;6.13;;;;;;;16.14;100.00;102780.69;5217917;28;20110;-80
2021/08/24 07:36:39;;;;;;;10.20;5.40;;;;;;;16.24;100.00;102783.31;5214544;28;20056;-80
2021/08/24 07:39:10;;;;;;;12.77;5.65;;;;;;;16.33;100.00;102782.38;5225977;28;20063;-80
2021/08/24 07:41:40;;;;;;;9.40;5.53;;;;;;;16.53;100.00;102788.44;5225712;28;20039;-80
2021/08/24 07:44:11;;;;;;;11.27;5.88;;;;;;;16.66;100.00;102790.72;5224483;28;20494;-79
2021/08/24 07:46:41;;;;;;;9.50;5.07;;;;;;;16.72;100.00;102785.56;5225445;28;20413;-80
2021/08/24 07:49:12;;;;;;;12.13;5.88;;;;;;;16.80;100.00;102782.03;5223826;28;20037;-79
2021/08/24 07:51:43;;;;;;;14.65;5.40;;;;;;;16.89;100.00;102785.66;5223983;28;20033;-80
2021/08/24 07:54:14;;;;;;;9.18;5.32;;;;;;;17.02;100.00;102783.38;5224007;28;20176;-80
2021/08/24 07:56:45;;;;;;;9.52;5.40;;;;;;;17.13;100.00;102788.50;5221535;28;20043;-79
2021/08/24 07:59:15;;;;;;;11.70;5.43;;;;;;;17.24;100.00;102773.78;5212815;28;20025;-79
2021/08/24 08:01:46;;;;;;;9.85;5.25;;;;;;;17.30;100.00;102776.69;5223866;28;20037;-79
2021/08/24 08:04:19;;;;;;;14.18;5.75;;;;;;;17.33;100.00;102779.09;5224256;28;20027;-80
2021/08/24 08:06:49;;;;;;;9.98;5.45;;;;;;;17.42;100.00;102776.38;5223886;28;20032;-79
2021/08/24 08:09:20;;;;;;;9.73;5.13;;;;;;;17.66;100.00;102776.47;5223278;28;20028;-80
2021/08/24 08:11:51;;;;;;;8.20;5.30;;;;;;;17.83;100.00;102778.25;5223546;28;20478;-80
2021/08/24 08:14:22;;;;;;;12.68;5.60;;;;;;;17.91;100.00;102787.41;5223683;28;20028;-80
2021/08/24 08:16:52;;;;;;;11.93;5.30;;;;;;;18.03;100.00;102775.22;5223741;28;20031;-79
2021/08/24 08:19:23;;;;;;;11.45;5.60;;;;;;;18.06;100.00;102781.13;5223143;28;20062;-80
2021/08/24 08:21:53;;;;;;;10.40;5.63;;;;;;;18.13;100.00;102786.75;5196414;28;20112;-79
2021/08/24 08:24:24;;;;;;;11.90;5.97;;;;;;;18.19;100.00;102780.63;5219098;28;20025;-79
2021/08/24 08:26:54;;;;;;;13.73;5.70;;;;;;;18.27;100.00;102786.09;5224859;28;20367;-80
2021/08/24 08:29:25;;;;;;;11.95;5.50;;;;;;;18.34;100.00;102786.25;5225023;28;20021;-81
2021/08/24 08:32:00;;;;;;;9.68;4.68;;;;;;;18.40;100.00;102787.41;5225646;28;20753;-80
2021/08/24 08:34:31;;;;;;;10.57;5.32;;;;;;;18.40;100.00;102782.84;5225605;28;20339;-79
2021/08/24 08:37:01;;;;;;;7.93;4.50;;;;;;;18.53;100.00;102787.75;5225565;28;20378;-80
2021/08/24 08:39:32;;;;;;;11.25;5.03;;;;;;;18.60;100.00;102786.03;5223240;28;20124;-80
2021/08/24 08:42:40;;;;;;;9.90;4.55;;;;;;;18.74;100.00;102781.81;5205958;28;20021;-80
2021/08/24 08:45:34;;;;;;;7.00;4.43;;;;;;;18.88;100.00;102787.38;5223957;28;20033;-80
2021/08/24 08:48:19;;;;;;;14.50;4.78;;;;;;;18.99;100.00;102780.72;5222904;28;20060;-79
2021/08/24 08:51:06;;;;;;;9.55;4.80;;;;;;;19.20;100.00;102782.00;5222384;28;20028;-79
2021/08/24 08:53:55;;;;;;;10.13;5.13;;;;;;;19.22;100.00;102772.63;5210235;28;20597;-81
2021/08/24 08:56:41;;;;;;;8.75;4.32;;;;;;;19.31;100.00;102766.13;5224050;28;20025;-80
2021/08/24 08:59:16;;;;;;;10.00;4.55;;;;;;;19.44;100.00;102772.88;5223031;28;20017;-81
2021/08/24 09:01:58;;;;;;;11.10;4.72;;;;;;;19.41;100.00;102777.63;5222522;28;20031;-79
2021/08/24 09:04:37;;;;;;;8.27;4.10;;;;;;;19.63;100.00;102772.47;5210235;28;20021;-80
2021/08/24 09:07:27;;;;;;;6.40;4.07;;;;;;;19.83;100.00;102772.81;5209579;28;20528;-80
2021/08/24 09:10:00;;;;;;;9.35;4.05;;;;;;;19.97;100.00;102769.31;5224922;28;20021;-81
2021/08/24 09:12:33;;;;;;;7.32;3.60;;;;;;;20.10;100.00;102765.97;5225529;28;20088;-80
2021/08/24 09:15:08;;;;;;;8.38;3.92;;;;;;;20.16;100.00;102767.97;5224237;28;20048;-81
2021/08/24 09:17:41;;;;;;;9.00;4.70;;;;;;;20.27;100.00;102763.94;5209852;28;20483;-81
2021/08/24 09:20:37;;;;;;;10.07;4.85;;;;;;;20.36;100.00;102779.19;5224399;28;20029;-80
2021/08/24 09:23:12;;;;;;;9.77;4.75;;;;;;;20.44;100.00;102768.22;5224772;28;20029;-80
2021/08/24 09:26:06;;;;;;;10.88;4.55;;;;;;;20.44;100.00;102770.97;5223759;28;20032;-80
2021/08/24 09:28:36;;;;;;;10.32;4.05;;;;;;;20.51;100.00;102771.94;5212875;28;20078;-79
2021/08/24 09:31:14;;;;;;;8.05;3.08;;;;;;;20.61;100.00;102771.66;5223330;28;20017;-79
2021/08/24 09:33:45;;;;;;;9.57;4.43;;;;;;;20.64;100.00;102758.50;5229964;28;20048;-80
2021/08/24 09:36:18;;;;;;;6.10;3.97;;;;;;;20.79;100.00;102761.25;5224792;28;20021;-80
2021/08/24 09:38:57;;;;;;;9.75;4.10;;;;;;;20.83;100.00;102762.53;5224684;28;20567;-82
2021/08/24 09:41:31;;;;;;;7.88;4.40;;;;;;;20.88;100.00;102761.97;5228990;28;20375;-80
2021/08/24 09:44:22;;;;;;;10.27;4.43;;;;;;;20.91;100.00;102756.16;5226250;28;20052;-80
2021/08/24 09:47:02;;;;;;;10.27;4.28;;;;;;;20.86;100.00;102751.28;5223947;28;20487;-80
2021/08/24 09:49:37;;;;;;;8.85;4.25;;;;;;;20.86;100.00;102756.72;5223322;28;20031;-80
2021/08/24 09:52:10;;;;;;;8.27;4.32;;;;;;;20.92;100.00;102755.97;5223631;28;20039;-80
2021/08/24 09:54:41;;;;;;;8.20;4.38;;;;;;;21.02;100.00;102741.19;5224251;28;20112;-81
2021/08/24 09:57:11;;;;;;;6.88;3.80;;;;;;;21.07;100.00;102750.50;5207304;28;20104;-81
2021/08/24 09:59:47;;;;;;;6.43;3.63;;;;;;;21.03;100.00;102734.69;5223714;28;20394;-81
2021/08/24 10:02:35;;;;;;;8.55;3.95;;;;;;;21.08;100.00;102748.63;5223166;28;20025;-80
2021/08/24 10:05:11;;;;;;;6.03;2.80;;;;;;;21.11;100.00;102743.63;5210093;28;20453;-81
2021/08/24 10:07:45;;;;;;;4.95;2.90;;;;;;;21.14;100.00;102732.34;5224110;28;20028;-79
2021/08/24 10:10:24;;;;;;;6.03;3.08;;;;;;;21.11;100.00;102738.16;5222500;28;20108;-82
2021/08/24 10:12:57;;;;;;;6.70;3.13;;;;;;;21.11;100.00;102742.78;5222949;28;20412;-82
2021/08/24 10:15:33;;;;;;;6.32;2.95;;;;;;;21.22;100.00;102734.09;5222290;28;20044;-81
2021/08/24 10:18:10;;;;;;;6.00;2.83;;;;;;;21.37;100.00;102729.47;5223014;28;20033;-82
2021/08/24 10:20:57;;;;;;;6.75;2.80;;;;;;;21.44;100.00;102727.69;5222001;28;20025;-79
2021/08/24 10:23:38;;;;;;;5.78;2.83;;;;;;;21.51;100.00;102732.38;5202883;28;20029;-82
2021/08/24 10:26:20;;;;;;;6.80;3.17;;;;;;;21.64;100.00;102727.91;5219428;28;20029;-83
2021/08/24 10:28:58;;;;;;;8.30;2.60;;;;;;;21.70;100.00;102735.31;5222441;28;20282;-80
2021/08/24 10:31:36;;;;;;;7.70;2.72;;;;;;;21.73;100.00;102732.19;5221715;28;20104;-79
2021/08/24 10:34:12;;;;;;;9.02;2.63;;;;;;;21.81;100.00;102731.22;5221750;28;20029;-80
2021/08/24 10:36:46;;;;;;;6.07;2.92;;;;;;;21.85;100.00;102729.78;5221857;28;20018;-82
2021/08/24 10:39:27;;;;;;;9.05;1.88;;;;;;;21.81;100.00;102728.50;5203454;28;20469;-81
2021/08/24 10:42:20;;;;;;;5.93;2.38;;;;;;;21.88;100.00;102734.84;5202732;28;20109;-81
2021/08/24 10:45:00;;;;;;;6.90;2.20;;;;;;;22.02;100.00;102729.50;5221751;28;20500;-81
2021/08/24 10:47:52;;;;;;;4.43;2.00;;;;;;;22.32;100.00;102727.47;5221689;28;20485;-81
2021/08/24 10:50:32;;;;;;;4.85;1.67;;;;;;;22.34;90.48;102722.66;5191592;28;20159;-82
2021/08/24 10:53:27;;;;;;;6.85;2.00;;;;;;;22.58;100.00;102715.88;5226263;28;20518;-81
2021/08/24 10:56:15;;;;;;;2.93;1.87;;;;;;;22.74;84.92;102715.53;5225187;28;20502;-81
2021/08/24 10:59:12;;;;;;;4.25;2.10;;;;;;;22.77;79.63;102701.47;5225452;28;20283;-81
2021/08/24 11:01:54;;;;;;;6.05;2.35;;;;;;;22.66;99.43;102718.47;5225694;28;20021;-81
2021/08/24 11:04:42;;;;;;;5.00;2.50;;;;;;;22.54;94.61;102720.91;5225201;28;20017;-81
2021/08/24 11:07:45;;;;;;;4.47;2.30;;;;;;;22.27;99.94;102716.28;5225050;28;20115;-81
2021/08/24 11:10:23;;;;;;;5.72;2.17;;;;;;;22.36;100.00;102710.47;5224360;28;20021;-81
2021/08/24 11:12:58;;;;;;;6.63;2.25;;;;;;;22.45;100.00;102702.97;5224784;28;20275;-80
2021/08/24 11:15:53;;;;;;;5.88;2.10;;;;;;;22.72;100.00;102713.00;5224651;28;20087;-82
2021/08/24 11:18:43;;;;;;;5.28;2.50;;;;;;;22.71;87.33;102697.66;5224730;28;20021;-82
2021/08/24 11:21:36;;;;;;;6.53;2.63;;;;;;;22.64;89.07;102721.41;5211121;28;20421;-83
2021/08/24 11:24:39;;;;;;;6.20;2.72;;;;;;;22.52;95.32;102711.22;5224731;28;20025;-83
2021/08/24 11:27:25;;;;;;;6.10;2.92;;;;;;;22.66;100.00;102710.25;5224241;28;20039;-82
2021/08/24 11:30:03;;;;;;;4.50;2.55;;;;;;;22.59;78.54;102714.81;5224084;28;20593;-81
2021/08/24 11:32:42;;;;;;;11.40;3.03;;;;;;;22.39;94.17;102711.94;5223990;28;20545;-83
2021/08/24 11:35:20;;;;;;;5.93;2.63;;;;;;;22.28;100.00;102704.31;5225391;28;20435;-82
2021/08/24 11:37:58;;;;;;;8.30;2.97;;;;;;;22.05;100.00;102708.13;5226907;28;20032;-82
2021/08/24 11:40:54;;;;;;;7.50;2.92;;;;;;;21.82;93.97;102702.84;5225497;28;20475;-81
2021/08/24 11:43:51;;;;;;;16.05;3.05;;;;;;;21.71;93.26;102711.59;5226307;28;20494;-81
2021/08/24 11:46:29;;;;;;;7.57;2.75;;;;;;;21.74;100.00;102719.41;5208254;28;20367;-82
2021/08/24 11:49:07;;;;;;;8.13;2.95;;;;;;;21.54;100.00;102707.44;5226008;28;20035;-81